createdAt,value
2019-03-28T00:01:22.812Z,2.77
2019-03-28T00:03:56.430Z,4.25
2019-03-28T00:06:29.606Z,2.62
2019-03-28T00:09:03.780Z,2.80
2019-03-28T00:14:09.293Z,5.37
2019-03-28T00:16:43.112Z,3.75
2019-03-28T00:19:16.434Z,2.02
2019-03-28T00:21:51.850Z,3.47
2019-03-28T00:24:40.493Z,2.55
2019-03-28T00:27:13.931Z,4.80
2019-03-28T00:29:47.544Z,2.75
2019-03-28T00:32:21.451Z,3.08
2019-03-28T00:34:55.107Z,2.33
2019-03-28T00:37:28.656Z,2.35
2019-03-28T00:40:02.125Z,2.20
2019-03-28T00:42:35.456Z,2.50
2019-03-28T00:45:09.890Z,1.85
2019-03-28T00:47:43.376Z,2.62
2019-03-28T00:50:16.564Z,1.77
2019-03-28T00:53:19.087Z,2.00
2019-03-28T00:55:52.560Z,2.60
2019-03-28T00:58:25.861Z,2.85
2019-03-28T01:00:59.430Z,1.72
2019-03-28T01:03:32.884Z,2.80
2019-03-28T01:06:07.384Z,5.08
2019-03-28T01:08:41.036Z,2.75
2019-03-28T01:11:14.468Z,2.10
2019-03-28T01:13:48.038Z,2.83
2019-03-28T01:16:21.465Z,1.98
2019-03-28T01:18:55.035Z,2.58
2019-03-28T01:21:28.591Z,3.62
2019-03-28T01:24:02.122Z,3.08
2019-03-28T01:26:35.561Z,2.12
2019-03-28T01:29:09.596Z,1.87
2019-03-28T01:31:43.329Z,2.77
2019-03-28T01:34:16.609Z,1.60
2019-03-28T01:36:49.274Z,1.67
2019-03-28T01:39:22.558Z,2.85
2019-03-28T01:41:55.845Z,2.10
2019-03-28T01:44:29.346Z,3.72
2019-03-28T01:47:02.445Z,2.27
2019-03-28T01:49:35.493Z,1.65
2019-03-28T01:52:09.373Z,1.87
2019-03-28T01:54:42.744Z,2.25
2019-03-28T01:59:48.315Z,2.10
2019-03-28T02:02:21.457Z,2.08
2019-03-28T02:04:54.881Z,2.92
2019-03-28T02:07:28.432Z,2.15
2019-03-28T02:10:01.894Z,1.60
2019-03-28T02:12:35.400Z,2.27
2019-03-28T02:15:09.874Z,4.00
2019-03-28T02:17:43.334Z,2.50
2019-03-28T02:20:17.381Z,2.05
2019-03-28T02:22:51.308Z,2.15
2019-03-28T02:25:24.699Z,3.00
2019-03-28T02:30:37.334Z,2.20
2019-03-28T02:33:10.880Z,3.22
2019-03-28T02:35:44.467Z,2.22
2019-03-28T02:38:18.052Z,1.90
2019-03-28T02:40:52.020Z,1.65
2019-03-28T02:43:25.405Z,1.65
2019-03-28T02:45:58.929Z,1.85
2019-03-28T02:48:32.324Z,3.20
2019-03-28T02:51:06.047Z,1.70
2019-03-28T02:53:39.616Z,1.90
2019-03-28T02:56:13.489Z,2.08
2019-03-28T02:58:47.335Z,1.85
2019-03-28T03:01:20.923Z,1.25
2019-03-28T03:03:54.298Z,1.85
2019-03-28T03:06:28.331Z,1.82
2019-03-28T03:09:01.512Z,1.87
2019-03-28T03:11:35.611Z,1.45
2019-03-28T03:14:10.007Z,2.05
2019-03-28T03:16:43.654Z,4.25
2019-03-28T03:19:17.072Z,1.40
2019-03-28T03:21:50.444Z,1.40
2019-03-28T03:24:24.331Z,1.60
2019-03-28T03:26:57.855Z,2.37
2019-03-28T03:29:31.342Z,1.85
2019-03-28T03:32:04.617Z,1.60
2019-03-28T03:34:38.116Z,1.50
2019-03-28T03:37:11.426Z,1.50
2019-03-28T03:39:45.509Z,1.55
2019-03-28T03:42:18.896Z,1.60
2019-03-28T03:44:53.043Z,1.87
2019-03-28T03:47:26.727Z,1.62
2019-03-28T03:52:33.829Z,2.77
2019-03-28T03:55:08.462Z,3.00
2019-03-28T03:57:41.624Z,1.42
2019-03-28T04:05:22.335Z,1.50
2019-03-28T04:07:55.895Z,2.22
2019-03-28T04:10:29.395Z,1.87
2019-03-28T04:13:03.005Z,1.57
2019-03-28T04:15:36.331Z,2.20
2019-03-28T04:18:09.454Z,2.70
2019-03-28T04:20:43.069Z,1.75
2019-03-28T04:23:17.319Z,1.77
2019-03-28T04:25:50.914Z,2.20
2019-03-28T04:28:31.799Z,2.15
2019-03-28T04:30:59.971Z,2.50
2019-03-28T04:33:33.451Z,1.98
2019-03-28T04:36:06.660Z,11.15
2019-03-28T04:38:40.352Z,7.22
2019-03-28T04:41:14.338Z,3.47
2019-03-28T04:43:47.665Z,5.08
2019-03-28T04:46:21.467Z,2.58
2019-03-28T04:48:54.875Z,3.27
2019-03-28T04:51:28.961Z,4.05
2019-03-28T04:54:03.534Z,3.67
2019-03-28T04:56:37.118Z,4.75
2019-03-28T04:59:11.445Z,3.08
2019-03-28T05:02:01.025Z,2.37
2019-03-28T05:04:21.800Z,2.85
2019-03-28T05:06:55.401Z,3.42
2019-03-28T05:09:28.897Z,2.52
2019-03-28T05:12:02.744Z,5.75
2019-03-28T05:17:09.475Z,1.77
2019-03-28T05:19:43.293Z,4.22
2019-03-28T05:22:17.378Z,4.05
2019-03-28T05:24:50.645Z,3.92
2019-03-28T05:27:24.334Z,2.52
2019-03-28T05:29:57.486Z,4.53
2019-03-28T05:32:31.335Z,3.72
2019-03-28T05:35:05.379Z,2.17
2019-03-28T05:37:38.825Z,4.35
2019-03-28T05:40:12.630Z,3.22
2019-03-28T05:42:46.469Z,4.22
2019-03-28T05:45:20.026Z,3.72
2019-03-28T05:47:53.800Z,5.72
2019-03-28T05:50:27.889Z,1.65
2019-03-28T05:53:01.602Z,3.05
2019-03-28T05:55:35.319Z,2.17
2019-03-28T05:58:09.711Z,4.33
2019-03-28T06:00:43.863Z,3.42
2019-03-28T06:03:17.507Z,4.50
2019-03-28T06:05:50.927Z,2.70
2019-03-28T06:08:24.469Z,4.90
2019-03-28T06:10:58.049Z,4.90
2019-03-28T06:13:31.918Z,3.27
2019-03-28T06:16:05.411Z,4.08
2019-03-28T06:18:39.006Z,2.30
2019-03-28T06:21:12.459Z,6.03
2019-03-28T06:23:45.824Z,6.83
2019-03-28T06:26:19.461Z,4.92
2019-03-28T06:28:53.313Z,2.40
2019-03-28T06:31:26.406Z,3.50
2019-03-28T06:34:00.539Z,2.62
2019-03-28T06:36:34.323Z,3.12
2019-03-28T06:39:08.903Z,2.58
2019-03-28T06:41:44.332Z,3.45
2019-03-28T06:44:18.091Z,2.37
2019-03-28T06:46:51.796Z,2.83
2019-03-28T06:49:25.343Z,1.90
2019-03-28T06:51:58.839Z,7.10
2019-03-28T06:54:32.587Z,1.62
2019-03-28T06:57:06.009Z,4.08
2019-03-28T06:59:40.318Z,3.92
2019-03-28T07:02:13.866Z,2.90
2019-03-28T07:04:47.406Z,2.87
2019-03-28T07:07:20.920Z,4.03
2019-03-28T07:09:54.450Z,2.10
2019-03-28T07:12:27.854Z,2.37
2019-03-28T07:15:01.413Z,4.37
2019-03-28T07:17:34.873Z,2.47
2019-03-28T07:20:09.269Z,4.28
2019-03-28T07:22:45.760Z,1.40
2019-03-28T07:25:17.907Z,2.95
2019-03-28T07:27:51.418Z,2.02
2019-03-28T07:30:25.333Z,2.22
2019-03-28T07:32:59.357Z,1.98
2019-03-28T07:35:32.893Z,2.70
2019-03-28T07:38:06.326Z,1.62
2019-03-28T07:40:39.502Z,2.92
2019-03-28T07:43:14.481Z,3.15
2019-03-28T07:45:47.548Z,5.03
2019-03-28T07:48:20.991Z,1.57
2019-03-28T07:50:54.881Z,2.33
2019-03-28T07:53:28.402Z,1.65
2019-03-28T07:56:01.891Z,2.30
2019-03-28T07:58:35.881Z,1.50
2019-03-28T08:01:09.600Z,1.32
2019-03-28T08:03:43.323Z,1.47
2019-03-28T08:06:17.321Z,1.50
2019-03-28T08:08:51.874Z,1.42
2019-03-28T08:11:25.481Z,1.62
2019-03-28T08:13:58.832Z,1.82
2019-03-28T08:16:32.469Z,2.20
2019-03-28T08:19:08.011Z,2.17
2019-03-28T08:21:41.843Z,5.75
2019-03-28T08:24:15.435Z,1.40
2019-03-28T08:26:49.317Z,3.30
2019-03-28T08:29:22.602Z,3.08
2019-03-28T08:31:58.284Z,1.40
2019-03-28T08:34:31.859Z,2.85
2019-03-28T08:37:05.526Z,2.25
2019-03-28T08:39:38.867Z,1.50
2019-03-28T08:42:12.657Z,1.52
2019-03-28T08:44:46.321Z,3.33
2019-03-28T08:47:19.812Z,1.90
2019-03-28T08:49:53.352Z,1.92
2019-03-28T08:52:26.976Z,1.82
2019-03-28T08:55:00.524Z,1.90
2019-03-28T08:57:33.856Z,1.60
2019-03-28T09:00:09.373Z,2.25
2019-03-28T09:02:43.273Z,1.62
2019-03-28T09:05:16.849Z,2.40
2019-03-28T09:07:50.556Z,2.00
2019-03-28T09:10:23.869Z,1.60
2019-03-28T09:12:57.605Z,1.57
2019-03-28T09:15:43.137Z,2.08
2019-03-28T09:18:06.519Z,1.80
2019-03-28T09:20:40.205Z,1.45
2019-03-28T09:23:13.805Z,1.70
2019-03-28T09:25:47.327Z,1.32
2019-03-28T09:28:20.902Z,1.55
2019-03-28T09:30:54.444Z,1.40
2019-03-28T09:33:27.800Z,1.75
2019-03-28T09:36:01.297Z,2.42
2019-03-28T09:38:35.329Z,1.70
2019-03-28T09:41:10.387Z,3.02
2019-03-28T09:43:54.520Z,1.95
2019-03-28T09:46:18.842Z,1.30
2019-03-28T09:48:52.416Z,1.75
2019-03-28T09:51:25.882Z,1.92
2019-03-28T09:53:59.335Z,2.72
2019-03-28T09:56:32.862Z,2.58
2019-03-28T09:59:06.398Z,2.75
2019-03-28T10:01:39.453Z,1.30
2019-03-28T10:04:12.883Z,1.50
2019-03-28T10:06:46.534Z,1.50
2019-03-28T10:09:20.359Z,2.02
2019-03-28T10:11:54.335Z,1.40
2019-03-28T10:14:27.488Z,1.40
2019-03-28T10:17:01.414Z,2.02
2019-03-28T10:19:35.014Z,1.57
2019-03-28T10:22:08.910Z,1.62
2019-03-28T10:24:42.615Z,2.65
2019-03-28T10:27:19.058Z,1.27
2019-03-28T10:32:45.333Z,1.67
2019-03-28T10:35:30.286Z,1.45
2019-03-28T10:38:04.331Z,1.90
2019-03-28T10:40:37.576Z,1.75
2019-03-28T10:43:13.025Z,2.00
2019-03-28T10:45:46.332Z,2.08
2019-03-28T10:48:19.569Z,1.50
2019-03-28T10:50:54.916Z,2.22
2019-03-28T10:53:30.130Z,2.02
2019-03-28T10:56:03.790Z,2.52
2019-03-28T11:01:08.880Z,1.85
2019-03-28T11:03:41.873Z,1.37
2019-03-28T11:06:15.076Z,1.55
2019-03-28T11:08:47.901Z,1.62
2019-03-28T11:11:20.868Z,2.75
2019-03-28T11:13:54.413Z,1.65
2019-03-28T11:16:26.972Z,1.95
2019-03-28T11:19:00.060Z,2.12
2019-03-28T11:21:34.399Z,1.40
2019-03-28T11:24:07.025Z,1.98
2019-03-28T11:26:40.357Z,2.45
2019-03-28T11:29:13.313Z,1.52
2019-03-28T11:31:50.570Z,5.17
2019-03-28T11:34:22.072Z,2.70
2019-03-28T11:36:55.490Z,1.98
2019-03-28T11:39:29.267Z,2.12
2019-03-28T11:42:02.812Z,1.62
2019-03-28T11:44:36.314Z,2.05
2019-03-28T11:47:09.323Z,1.82
2019-03-28T11:49:42.305Z,2.58
2019-03-28T11:52:15.313Z,2.00
2019-03-28T11:54:48.310Z,2.12
2019-03-28T11:57:21.310Z,1.50
2019-03-28T11:59:54.312Z,2.85
2019-03-28T12:02:27.778Z,1.52
2019-03-28T12:05:01.377Z,5.62
2019-03-28T12:07:34.354Z,2.17
2019-03-28T12:10:10.530Z,1.70
2019-03-28T12:12:43.497Z,1.70
2019-03-28T12:15:17.303Z,1.70
2019-03-28T12:17:50.338Z,4.33
2019-03-28T12:20:23.313Z,2.10
2019-03-28T12:22:56.305Z,5.45
2019-03-28T12:25:29.324Z,2.27
2019-03-28T12:28:02.499Z,3.55
2019-03-28T12:30:35.305Z,2.95
2019-03-28T12:33:08.374Z,2.72
2019-03-28T12:35:41.324Z,3.80
2019-03-28T12:38:17.441Z,3.10
2019-03-28T12:40:50.316Z,2.65
2019-03-28T12:43:23.319Z,2.20
2019-03-28T12:45:56.318Z,2.92
2019-03-28T12:48:29.311Z,4.67
2019-03-28T12:51:02.383Z,2.80
2019-03-28T12:53:35.310Z,2.40
2019-03-28T12:56:08.418Z,1.62
2019-03-28T12:58:41.406Z,2.15
2019-03-28T13:01:14.798Z,2.17
2019-03-28T13:03:48.008Z,2.00
2019-03-28T13:06:21.803Z,2.00
2019-03-28T13:08:55.061Z,3.90
2019-03-28T13:11:28.594Z,3.40
2019-03-28T13:14:01.125Z,2.35
2019-03-28T13:16:34.850Z,2.98
2019-03-28T13:19:08.070Z,1.75
2019-03-28T13:21:41.446Z,4.12
2019-03-28T13:24:14.327Z,1.98
2019-03-28T13:26:47.318Z,2.00
2019-03-28T13:29:20.312Z,1.90
2019-03-28T13:31:53.317Z,1.80
2019-03-28T13:34:26.868Z,2.62
2019-03-28T13:37:00.316Z,1.90
2019-03-28T13:39:33.315Z,3.17
2019-03-28T13:42:06.322Z,2.17
2019-03-28T13:44:39.401Z,2.00
2019-03-28T13:47:12.382Z,1.70
2019-03-28T13:49:45.318Z,1.82
2019-03-28T13:52:18.313Z,2.72
2019-03-28T13:54:53.033Z,1.85
2019-03-28T13:57:26.285Z,2.15
2019-03-28T13:59:59.363Z,4.60
2019-03-28T14:02:32.370Z,2.45
2019-03-28T14:05:06.311Z,2.22
2019-03-28T14:07:39.316Z,1.75
2019-03-28T14:10:13.315Z,1.62
2019-03-28T14:12:46.299Z,2.83
2019-03-28T14:15:19.704Z,1.60
2019-03-28T14:22:56.395Z,1.75
2019-03-28T14:25:31.494Z,1.65
2019-03-28T14:28:10.344Z,2.05
2019-03-28T14:30:44.717Z,1.50
2019-03-28T14:33:27.843Z,2.50
2019-03-28T14:36:01.322Z,2.47
2019-03-28T14:38:37.308Z,3.08
2019-03-28T14:41:09.636Z,1.85
2019-03-28T14:43:42.829Z,1.62
2019-03-28T14:46:16.070Z,1.70
2019-03-28T14:49:10.708Z,2.98
2019-03-28T14:51:44.323Z,1.70
2019-03-28T14:54:17.315Z,2.00
2019-03-28T14:56:51.311Z,2.95
2019-03-28T14:59:32.312Z,2.30
2019-03-28T15:01:59.302Z,2.10
2019-03-28T15:04:32.658Z,2.20
2019-03-28T15:07:08.810Z,2.08
2019-03-28T15:09:41.897Z,2.10
2019-03-28T15:12:15.314Z,1.62
2019-03-28T15:14:48.308Z,1.75
2019-03-28T15:17:21.366Z,2.98
2019-03-28T15:19:54.310Z,1.80
2019-03-28T15:22:27.306Z,2.27
2019-03-28T15:25:00.306Z,2.42
2019-03-28T15:27:33.306Z,2.70
2019-03-28T15:30:06.785Z,2.33
2019-03-28T15:32:39.815Z,2.70
2019-03-28T15:35:13.028Z,3.72
2019-03-28T15:37:47.343Z,2.30
2019-03-28T15:40:20.099Z,2.50
2019-03-28T15:42:53.300Z,3.12
2019-03-28T15:45:26.345Z,2.35
2019-03-28T15:47:59.688Z,2.20
2019-03-28T15:55:36.257Z,1.90
2019-03-28T15:58:23.067Z,2.05
2019-03-28T16:00:52.409Z,2.80
2019-03-28T16:03:26.634Z,2.60
2019-03-28T16:05:59.879Z,2.02
2019-03-28T16:08:33.300Z,2.40
2019-03-28T16:11:06.815Z,1.90
2019-03-28T16:13:40.289Z,2.87
2019-03-28T16:16:13.304Z,2.98
2019-03-28T16:18:46.346Z,1.75
2019-03-28T16:21:19.590Z,3.10
2019-03-28T16:23:53.054Z,6.17
2019-03-28T16:26:26.298Z,2.62
2019-03-28T16:29:00.289Z,1.80
2019-03-28T16:31:33.350Z,1.55
2019-03-28T16:34:07.541Z,2.87
2019-03-28T16:36:41.035Z,4.17
2019-03-28T16:39:14.298Z,3.72
2019-03-28T16:41:47.307Z,2.45
2019-03-28T16:44:20.503Z,3.47
2019-03-28T16:46:53.407Z,3.70
2019-03-28T16:49:26.320Z,4.60
2019-03-28T16:51:59.302Z,3.65
2019-03-28T16:54:32.363Z,3.55
2019-03-28T16:57:05.367Z,5.62
2019-03-28T16:59:39.322Z,3.62
2019-03-28T17:02:12.056Z,3.65
2019-03-28T17:04:45.268Z,2.83
2019-03-28T17:07:18.804Z,4.00
2019-03-28T17:09:51.818Z,4.78
2019-03-28T17:12:24.849Z,5.40
2019-03-28T17:14:57.834Z,3.70
2019-03-28T17:17:30.818Z,3.35
2019-03-28T17:22:44.309Z,3.47
2019-03-28T17:25:17.036Z,2.92
2019-03-28T17:27:50.681Z,5.25
2019-03-28T17:32:55.819Z,2.50
2019-03-28T17:35:29.824Z,4.30
2019-03-28T17:38:03.000Z,2.83
2019-03-28T17:40:36.962Z,4.17
2019-03-28T17:43:10.012Z,2.62
2019-03-28T17:45:43.271Z,4.40
2019-03-28T17:48:16.642Z,4.30
2019-03-28T17:50:49.935Z,5.45
2019-03-28T17:53:24.116Z,7.60
2019-03-28T17:55:57.779Z,5.00
2019-03-28T18:01:03.034Z,6.92
2019-03-28T18:03:36.250Z,5.33
2019-03-28T18:06:09.047Z,6.33
2019-03-28T18:08:42.749Z,5.05
2019-03-28T18:11:16.301Z,6.42
2019-03-28T18:13:49.795Z,7.17
2019-03-28T18:16:23.302Z,4.28
2019-03-28T18:18:56.269Z,11.70
2019-03-28T18:21:29.295Z,7.83
2019-03-28T18:24:02.317Z,6.65
2019-03-28T18:26:35.365Z,6.85
2019-03-28T18:29:08.297Z,7.22
2019-03-28T18:31:50.463Z,14.65
2019-03-28T18:34:15.981Z,8.83
2019-03-28T18:36:48.849Z,8.30
2019-03-28T18:39:22.054Z,9.68
2019-03-28T18:41:56.600Z,7.45
2019-03-28T18:47:01.862Z,5.67
2019-03-28T18:49:35.093Z,5.60
2019-03-28T18:52:08.062Z,13.03
2019-03-28T18:54:41.301Z,7.28
2019-03-28T18:57:14.798Z,5.47
2019-03-28T18:59:47.757Z,6.35
2019-03-28T19:02:21.062Z,7.80
2019-03-28T19:04:54.297Z,6.58
2019-03-28T19:07:27.075Z,7.28
2019-03-28T19:09:59.976Z,7.15
2019-03-28T19:12:32.898Z,5.92
2019-03-28T19:15:06.326Z,8.93
2019-03-28T19:17:39.466Z,8.93
2019-03-28T19:20:12.424Z,5.75
2019-03-28T19:22:45.520Z,10.05
2019-03-28T19:25:18.783Z,9.45
2019-03-28T19:27:51.982Z,11.70
2019-03-28T19:30:35.326Z,10.43
2019-03-28T19:33:08.814Z,6.15
2019-03-28T19:35:42.066Z,7.60
2019-03-28T19:38:16.693Z,9.58
2019-03-28T19:43:20.502Z,6.40
2019-03-28T19:45:48.270Z,6.62
2019-03-28T19:48:21.061Z,12.80
2019-03-28T19:50:54.069Z,6.50
2019-03-28T19:53:27.304Z,8.38
2019-03-28T19:56:00.313Z,8.53
2019-03-28T19:58:35.258Z,6.47
2019-03-28T20:01:08.484Z,10.10
2019-03-28T20:03:42.916Z,10.75
2019-03-28T20:06:22.164Z,7.35
2019-03-28T20:11:22.933Z,10.63
2019-03-28T20:13:56.384Z,9.43
2019-03-28T20:16:29.075Z,6.47
2019-03-28T20:19:02.518Z,7.95
2019-03-28T20:21:35.364Z,7.85
2019-03-28T20:24:08.313Z,7.67
2019-03-28T20:26:41.748Z,9.28
2019-03-28T20:31:46.065Z,11.73
2019-03-28T20:34:18.998Z,11.43
2019-03-28T20:36:53.076Z,8.50
2019-03-28T20:39:26.429Z,7.47
2019-03-28T20:41:59.799Z,10.85
2019-03-28T20:44:32.788Z,9.60
2019-03-28T20:52:09.747Z,12.90
2019-03-28T20:54:42.813Z,7.30
2019-03-28T20:57:15.786Z,11.55
2019-03-28T20:59:48.759Z,8.55
2019-03-28T21:04:53.409Z,11.18
2019-03-28T21:07:25.994Z,10.00
2019-03-28T21:09:59.319Z,12.05
2019-03-28T21:12:34.759Z,7.80
2019-03-28T21:17:43.730Z,6.90
2019-03-28T21:22:51.687Z,10.70
2019-03-28T21:27:59.715Z,16.40
2019-03-28T21:33:09.706Z,10.18
2019-03-28T21:38:17.103Z,9.95
2019-03-28T21:40:53.185Z,6.40
2019-03-28T21:46:02.657Z,8.18
2019-03-28T21:48:37.686Z,8.23
2019-03-28T21:51:13.700Z,4.70
2019-03-28T21:56:24.017Z,11.38
2019-03-28T21:58:59.702Z,11.83
2019-03-28T22:04:09.689Z,9.33
2019-03-28T22:09:18.682Z,8.03
2019-03-28T22:11:53.666Z,8.65
2019-03-28T22:17:01.712Z,5.03
2019-03-28T22:22:10.735Z,4.85
2019-03-28T22:27:20.694Z,5.50
2019-03-28T22:32:30.811Z,5.75
2019-03-28T22:35:06.749Z,4.73
2019-03-28T22:42:52.724Z,5.10
2019-03-28T22:45:27.908Z,7.70
2019-03-28T22:48:10.811Z,7.10
2019-03-28T22:50:41.746Z,3.83
2019-03-28T23:01:01.748Z,5.30
2019-03-28T23:11:23.710Z,4.10
2019-03-28T23:14:00.732Z,5.70
2019-03-28T23:21:45.916Z,5.45
2019-03-28T23:24:21.742Z,4.67
2019-03-28T23:26:57.738Z,4.70
2019-03-28T23:29:32.867Z,3.00
2019-03-28T23:32:08.705Z,4.33
2019-03-28T23:37:24.699Z,3.27
2019-03-28T23:39:56.743Z,3.17
2019-03-28T23:42:32.770Z,4.90
2019-03-28T23:47:43.839Z,3.35
2019-03-28T23:50:18.722Z,6.50
2019-03-28T23:55:28.749Z,5.70
